Archival Weather

Sydney Intl

Sydney, Australia (YSSY)

Report from: Sunday, March 19, 2023 8:11 AM AEDT
Current time: Tuesday, July 16, 2024 7:51 PM AEST

Current weather – Weather history – Daily summaries
Weather forecast

Temperature21.0°C (69.8°F)
Dew point20.0°C (68.0°F)
Winds 8 kts (4.1 m/s, 9.2 mph) North-Northwest (330°)
Visibility2296.6 ft. (700 m)
Altimeter30.03 in.Hg (1017 mB)
Relative humidity94 %
Density altitude891 ft. (272 m)
Remarks Special weather observation
Flight conditions Low Instrument Meteorological Conditions
Raw dataSPAU31 KWBC 182127 SPECI YSSY 182111Z 33008KT 0700 FG 21/20 Q1017
An error has occurred. This application may no longer respond until reloaded. Reload 🗙